sensor_id;sensor_type;location;lat;lon;timestamp;P1;durP1;ratioP1;P2;durP2;ratioP2
46330;SDS011;32049;52.346;4.870;2022-09-09T00:00:33;2.37;;;1.43;;
46330;SDS011;32049;52.346;4.870;2022-09-09T00:03:26;7.33;;;1.20;;
46330;SDS011;32049;52.346;4.870;2022-09-09T00:06:32;3.88;;;1.92;;
46330;SDS011;32049;52.346;4.870;2022-09-09T00:09:39;3.90;;;1.27;;
46330;SDS011;32049;52.346;4.870;2022-09-09T00:12:49;3.00;;;1.42;;
46330;SDS011;32049;52.346;4.870;2022-09-09T00:19:18;4.35;;;2.30;;
46330;SDS011;32049;52.346;4.870;2022-09-09T00:25:09;4.33;;;2.30;;
46330;SDS011;32049;52.346;4.870;2022-09-09T00:27:58;2.08;;;1.77;;
46330;SDS011;32049;52.346;4.870;2022-09-09T00:30:45;2.17;;;1.50;;
46330;SDS011;32049;52.346;4.870;2022-09-09T00:57:31;4.57;;;3.00;;
46330;SDS011;32049;52.346;4.870;2022-09-09T01:01:04;3.57;;;2.20;;
46330;SDS011;32049;52.346;4.870;2022-09-09T01:04:16;5.27;;;3.20;;
46330;SDS011;32049;52.346;4.870;2022-09-09T01:07:50;7.33;;;3.40;;
46330;SDS011;32049;52.346;4.870;2022-09-09T01:28:28;7.50;;;3.80;;
46330;SDS011;32049;52.346;4.870;2022-09-09T01:32:43;7.97;;;4.70;;
46330;SDS011;32049;52.346;4.870;2022-09-09T01:35:48;4.97;;;4.47;;
46330;SDS011;32049;52.346;4.870;2022-09-09T01:39:02;7.83;;;4.07;;
46330;SDS011;32049;52.346;4.870;2022-09-09T01:41:49;6.33;;;4.20;;
46330;SDS011;32049;52.346;4.870;2022-09-09T01:44:42;7.33;;;4.40;;
46330;SDS011;32049;52.346;4.870;2022-09-09T01:47:53;5.40;;;4.33;;
46330;SDS011;32049;52.346;4.870;2022-09-09T01:51:00;8.97;;;4.40;;
46330;SDS011;32049;52.346;4.870;2022-09-09T01:53:53;10.13;;;5.53;;
46330;SDS011;32049;52.346;4.870;2022-09-09T01:57:06;4.50;;;3.57;;
46330;SDS011;32049;52.346;4.870;2022-09-09T02:00:29;7.00;;;3.50;;
46330;SDS011;32049;52.346;4.870;2022-09-09T02:03:31;8.47;;;4.33;;
46330;SDS011;32049;52.346;4.870;2022-09-09T02:06:28;7.53;;;4.55;;
46330;SDS011;32049;52.346;4.870;2022-09-09T02:12:20;5.87;;;4.27;;
46330;SDS011;32049;52.346;4.870;2022-09-09T02:15:16;8.07;;;5.70;;
46330;SDS011;32049;52.346;4.870;2022-09-09T02:18:18;7.87;;;3.70;;
46330;SDS011;32049;52.346;4.870;2022-09-09T02:21:31;9.37;;;4.33;;
46330;SDS011;32049;52.346;4.870;2022-09-09T02:24:28;10.20;;;4.80;;
46330;SDS011;32049;52.346;4.870;2022-09-09T02:27:43;6.40;;;4.70;;
46330;SDS011;32049;52.346;4.870;2022-09-09T02:31:25;6.23;;;4.37;;
46330;SDS011;32049;52.346;4.870;2022-09-09T02:35:16;8.60;;;5.00;;
46330;SDS011;32049;52.346;4.870;2022-09-09T02:38:29;7.57;;;3.10;;
46330;SDS011;32049;52.346;4.870;2022-09-09T05:00:25;4.23;;;2.87;;
46330;SDS011;32049;52.346;4.870;2022-09-09T05:03:19;9.53;;;3.80;;
46330;SDS011;32049;52.346;4.870;2022-09-09T05:06:10;4.67;;;2.80;;
46330;SDS011;32049;52.346;4.870;2022-09-09T05:09:08;4.60;;;2.30;;
46330;SDS011;32049;52.346;4.870;2022-09-09T05:11:56;4.20;;;2.53;;
46330;SDS011;32049;52.346;4.870;2022-09-09T05:14:46;6.90;;;2.73;;
46330;SDS011;32049;52.346;4.870;2022-09-09T05:17:43;3.90;;;2.87;;
46330;SDS011;32049;52.346;4.870;2022-09-09T05:20:33;5.73;;;2.07;;
46330;SDS011;32049;52.346;4.870;2022-09-09T05:23:37;6.53;;;2.27;;
46330;SDS011;32049;52.346;4.870;2022-09-09T05:26:24;6.93;;;2.90;;
46330;SDS011;32049;52.346;4.870;2022-09-09T05:29:12;7.03;;;3.13;;
46330;SDS011;32049;52.346;4.870;2022-09-09T05:36:28;4.15;;;3.00;;
46330;SDS011;32049;52.346;4.870;2022-09-09T05:39:16;6.13;;;2.97;;
46330;SDS011;32049;52.346;4.870;2022-09-09T05:42:04;8.10;;;3.10;;
46330;SDS011;32049;52.346;4.870;2022-09-09T05:44:55;9.47;;;2.73;;
46330;SDS011;32049;52.346;4.870;2022-09-09T05:47:43;6.50;;;2.70;;
46330;SDS011;32049;52.346;4.870;2022-09-09T05:50:39;6.23;;;2.73;;
46330;SDS011;32049;52.346;4.870;2022-09-09T05:53:27;7.73;;;2.80;;
46330;SDS011;32049;52.346;4.870;2022-09-09T05:56:20;5.33;;;2.63;;
46330;SDS011;32049;52.346;4.870;2022-09-09T05:59:10;7.53;;;2.23;;
46330;SDS011;32049;52.346;4.870;2022-09-09T06:01:59;6.50;;;2.40;;
46330;SDS011;32049;52.346;4.870;2022-09-09T06:04:48;7.20;;;2.93;;
46330;SDS011;32049;52.346;4.870;2022-09-09T06:07:38;15.57;;;2.80;;
46330;SDS011;32049;52.346;4.870;2022-09-09T06:10:33;6.57;;;2.60;;
46330;SDS011;32049;52.346;4.870;2022-09-09T06:13:26;5.40;;;2.33;;
46330;SDS011;32049;52.346;4.870;2022-09-09T06:16:18;5.20;;;1.63;;
46330;SDS011;32049;52.346;4.870;2022-09-09T06:19:09;5.57;;;2.50;;
46330;SDS011;32049;52.346;4.870;2022-09-09T06:25:01;6.63;;;2.40;;
46330;SDS011;32049;52.346;4.870;2022-09-09T06:27:53;5.47;;;1.63;;
46330;SDS011;32049;52.346;4.870;2022-09-09T06:30:44;10.18;;;2.63;;
46330;SDS011;32049;52.346;4.870;2022-09-09T06:33:33;5.87;;;2.40;;
46330;SDS011;32049;52.346;4.870;2022-09-09T06:36:29;12.00;;;3.67;;
46330;SDS011;32049;52.346;4.870;2022-09-09T06:39:22;8.53;;;2.60;;
46330;SDS011;32049;52.346;4.870;2022-09-09T06:42:12;9.90;;;1.87;;
46330;SDS011;32049;52.346;4.870;2022-09-09T06:45:31;7.00;;;2.00;;
46330;SDS011;32049;52.346;4.870;2022-09-09T06:48:31;9.97;;;2.70;;
46330;SDS011;32049;52.346;4.870;2022-09-09T06:51:38;6.90;;;2.93;;
46330;SDS011;32049;52.346;4.870;2022-09-09T06:54:51;11.50;;;2.83;;
46330;SDS011;32049;52.346;4.870;2022-09-09T06:57:54;10.63;;;2.40;;
46330;SDS011;32049;52.346;4.870;2022-09-09T07:00:50;7.57;;;2.27;;
46330;SDS011;32049;52.346;4.870;2022-09-09T07:04:09;8.50;;;2.40;;
46330;SDS011;32049;52.346;4.870;2022-09-09T07:07:12;6.87;;;2.40;;
46330;SDS011;32049;52.346;4.870;2022-09-09T07:10:05;6.67;;;2.43;;
46330;SDS011;32049;52.346;4.870;2022-09-09T07:13:26;7.60;;;2.78;;
46330;SDS011;32049;52.346;4.870;2022-09-09T07:20:23;9.63;;;3.40;;
46330;SDS011;32049;52.346;4.870;2022-09-09T07:23:24;7.83;;;2.10;;
46330;SDS011;32049;52.346;4.870;2022-09-09T07:26:32;4.63;;;2.10;;
46330;SDS011;32049;52.346;4.870;2022-09-09T07:29:39;10.73;;;3.17;;
46330;SDS011;32049;52.346;4.870;2022-09-09T07:32:31;11.23;;;3.40;;
46330;SDS011;32049;52.346;4.870;2022-09-09T07:35:31;9.67;;;3.00;;
46330;SDS011;32049;52.346;4.870;2022-09-09T07:39:12;8.23;;;2.63;;
46330;SDS011;32049;52.346;4.870;2022-09-09T07:42:23;8.37;;;3.60;;
46330;SDS011;32049;52.346;4.870;2022-09-09T07:45:41;10.10;;;3.40;;
46330;SDS011;32049;52.346;4.870;2022-09-09T07:48:32;10.57;;;3.20;;
46330;SDS011;32049;52.346;4.870;2022-09-09T07:51:34;11.17;;;3.57;;
46330;SDS011;32049;52.346;4.870;2022-09-09T07:54:34;7.60;;;2.87;;
46330;SDS011;32049;52.346;4.870;2022-09-09T07:57:30;9.10;;;2.97;;
46330;SDS011;32049;52.346;4.870;2022-09-09T08:00:59;11.17;;;4.20;;
46330;SDS011;32049;52.346;4.870;2022-09-09T08:04:00;11.87;;;3.90;;
46330;SDS011;32049;52.346;4.870;2022-09-09T08:06:55;9.40;;;3.87;;
46330;SDS011;32049;52.346;4.870;2022-09-09T08:09:50;11.57;;;3.63;;
46330;SDS011;32049;52.346;4.870;2022-09-09T08:12:56;9.50;;;3.47;;
46330;SDS011;32049;52.346;4.870;2022-09-09T08:19:54;10.23;;;2.63;;
46330;SDS011;32049;52.346;4.870;2022-09-09T08:23:31;12.60;;;3.67;;
46330;SDS011;32049;52.346;4.870;2022-09-09T08:32:04;7.33;;;2.40;;
46330;SDS011;32049;52.346;4.870;2022-09-09T08:35:17;8.90;;;3.13;;
46330;SDS011;32049;52.346;4.870;2022-09-09T08:38:32;9.00;;;3.90;;
46330;SDS011;32049;52.346;4.870;2022-09-09T08:41:49;9.57;;;3.70;;
46330;SDS011;32049;52.346;4.870;2022-09-09T08:48:41;11.03;;;4.23;;
46330;SDS011;32049;52.346;4.870;2022-09-09T08:51:42;13.20;;;3.13;;
46330;SDS011;32049;52.346;4.870;2022-09-09T08:54:43;9.87;;;3.43;;
46330;SDS011;32049;52.346;4.870;2022-09-09T08:58:32;11.17;;;3.77;;
46330;SDS011;32049;52.346;4.870;2022-09-09T09:01:35;10.57;;;3.43;;
46330;SDS011;32049;52.346;4.870;2022-09-09T09:08:04;8.17;;;3.60;;
46330;SDS011;32049;52.346;4.870;2022-09-09T09:11:21;12.87;;;3.20;;
46330;SDS011;32049;52.346;4.870;2022-09-09T09:17:32;7.70;;;3.40;;
46330;SDS011;32049;52.346;4.870;2022-09-09T09:27:58;16.17;;;4.10;;
46330;SDS011;32049;52.346;4.870;2022-09-09T09:31:12;10.00;;;3.70;;
46330;SDS011;32049;52.346;4.870;2022-09-09T09:34:23;8.90;;;3.20;;
46330;SDS011;32049;52.346;4.870;2022-09-09T09:37:33;14.57;;;3.57;;
46330;SDS011;32049;52.346;4.870;2022-09-09T09:40:52;10.97;;;3.57;;
46330;SDS011;32049;52.346;4.870;2022-09-09T09:43:52;12.37;;;3.63;;
46330;SDS011;32049;52.346;4.870;2022-09-09T09:47:11;9.60;;;3.33;;
46330;SDS011;32049;52.346;4.870;2022-09-09T09:50:18;9.20;;;2.90;;
46330;SDS011;32049;52.346;4.870;2022-09-09T09:53:19;9.93;;;3.03;;
46330;SDS011;32049;52.346;4.870;2022-09-09T09:56:17;8.30;;;2.97;;
46330;SDS011;32049;52.346;4.870;2022-09-09T10:02:37;10.00;;;3.43;;
46330;SDS011;32049;52.346;4.870;2022-09-09T10:05:39;12.03;;;3.33;;
46330;SDS011;32049;52.346;4.870;2022-09-09T10:08:44;8.37;;;3.00;;
46330;SDS011;32049;52.346;4.870;2022-09-09T10:11:44;8.57;;;3.03;;
46330;SDS011;32049;52.346;4.870;2022-09-09T10:21:40;6.27;;;2.23;;
46330;SDS011;32049;52.346;4.870;2022-09-09T10:38:48;10.43;;;2.23;;
46330;SDS011;32049;52.346;4.870;2022-09-09T10:56:09;9.37;;;2.40;;
46330;SDS011;32049;52.346;4.870;2022-09-09T10:59:14;6.00;;;1.90;;
46330;SDS011;32049;52.346;4.870;2022-09-09T11:05:45;5.63;;;2.13;;
46330;SDS011;32049;52.346;4.870;2022-09-09T11:21:05;6.93;;;2.20;;
46330;SDS011;32049;52.346;4.870;2022-09-09T11:24:12;5.80;;;2.10;;
46330;SDS011;32049;52.346;4.870;2022-09-09T11:27:13;6.97;;;2.00;;
46330;SDS011;32049;52.346;4.870;2022-09-09T11:30:24;8.40;;;2.00;;
46330;SDS011;32049;52.346;4.870;2022-09-09T11:34:03;7.77;;;2.30;;
46330;SDS011;32049;52.346;4.870;2022-09-09T11:37:28;10.13;;;2.55;;
46330;SDS011;32049;52.346;4.870;2022-09-09T11:40:25;4.93;;;2.27;;
46330;SDS011;32049;52.346;4.870;2022-09-09T11:43:18;7.93;;;2.07;;
46330;SDS011;32049;52.346;4.870;2022-09-09T11:46:18;4.37;;;2.07;;
46330;SDS011;32049;52.346;4.870;2022-09-09T11:53:49;8.77;;;1.87;;
46330;SDS011;32049;52.346;4.870;2022-09-09T12:03:51;6.20;;;1.97;;
46330;SDS011;32049;52.346;4.870;2022-09-09T12:06:53;6.13;;;1.90;;
46330;SDS011;32049;52.346;4.870;2022-09-09T12:12:41;4.73;;;1.43;;
46330;SDS011;32049;52.346;4.870;2022-09-09T12:15:30;6.27;;;2.03;;
46330;SDS011;32049;52.346;4.870;2022-09-09T12:18:22;5.73;;;1.90;;
46330;SDS011;32049;52.346;4.870;2022-09-09T12:28:05;4.40;;;1.70;;
46330;SDS011;32049;52.346;4.870;2022-09-09T12:34:17;5.17;;;2.27;;
46330;SDS011;32049;52.346;4.870;2022-09-09T12:40:29;3.67;;;2.00;;
46330;SDS011;32049;52.346;4.870;2022-09-09T12:44:16;6.47;;;2.67;;
46330;SDS011;32049;52.346;4.870;2022-09-09T12:47:04;7.13;;;2.37;;
46330;SDS011;32049;52.346;4.870;2022-09-09T12:49:53;5.50;;;2.20;;
46330;SDS011;32049;52.346;4.870;2022-09-09T12:52:43;7.50;;;2.30;;
46330;SDS011;32049;52.346;4.870;2022-09-09T12:55:32;5.30;;;2.60;;
46330;SDS011;32049;52.346;4.870;2022-09-09T12:58:23;4.17;;;2.50;;
46330;SDS011;32049;52.346;4.870;2022-09-09T13:01:18;9.57;;;3.43;;
46330;SDS011;32049;52.346;4.870;2022-09-09T13:04:20;7.43;;;2.90;;
46330;SDS011;32049;52.346;4.870;2022-09-09T13:07:41;5.47;;;2.83;;
46330;SDS011;32049;52.346;4.870;2022-09-09T13:10:43;6.00;;;3.03;;
46330;SDS011;32049;52.346;4.870;2022-09-09T13:13:52;6.00;;;3.37;;
46330;SDS011;32049;52.346;4.870;2022-09-09T13:16:53;6.20;;;3.38;;
46330;SDS011;32049;52.346;4.870;2022-09-09T13:19:43;7.93;;;3.77;;
46330;SDS011;32049;52.346;4.870;2022-09-09T13:22:41;8.80;;;3.70;;
46330;SDS011;32049;52.346;4.870;2022-09-09T13:25:29;5.57;;;3.37;;
46330;SDS011;32049;52.346;4.870;2022-09-09T13:28:25;8.00;;;3.10;;
46330;SDS011;32049;52.346;4.870;2022-09-09T13:31:21;6.50;;;2.57;;
46330;SDS011;32049;52.346;4.870;2022-09-09T13:34:34;3.40;;;2.43;;
46330;SDS011;32049;52.346;4.870;2022-09-09T13:40:52;4.90;;;2.50;;
46330;SDS011;32049;52.346;4.870;2022-09-09T13:43:46;5.17;;;2.40;;
46330;SDS011;32049;52.346;4.870;2022-09-09T13:50:31;6.30;;;2.60;;
46330;SDS011;32049;52.346;4.870;2022-09-09T13:53:32;3.53;;;2.07;;
46330;SDS011;32049;52.346;4.870;2022-09-09T13:56:42;4.70;;;2.43;;
46330;SDS011;32049;52.346;4.870;2022-09-09T13:59:48;6.90;;;2.20;;
46330;SDS011;32049;52.346;4.870;2022-09-09T14:06:24;3.83;;;2.10;;
46330;SDS011;32049;52.346;4.870;2022-09-09T14:09:19;4.97;;;1.65;;
46330;SDS011;32049;52.346;4.870;2022-09-09T14:13:01;3.67;;;1.87;;
46330;SDS011;32049;52.346;4.870;2022-09-09T14:16:04;4.80;;;1.87;;
46330;SDS011;32049;52.346;4.870;2022-09-09T14:18:53;4.63;;;1.60;;
46330;SDS011;32049;52.346;4.870;2022-09-09T14:21:52;4.17;;;1.83;;
46330;SDS011;32049;52.346;4.870;2022-09-09T14:24:46;8.17;;;2.13;;
46330;SDS011;32049;52.346;4.870;2022-09-09T14:27:44;5.60;;;1.63;;
46330;SDS011;32049;52.346;4.870;2022-09-09T14:31:00;3.10;;;1.47;;
46330;SDS011;32049;52.346;4.870;2022-09-09T14:34:11;4.50;;;1.70;;
46330;SDS011;32049;52.346;4.870;2022-09-09T14:36:59;3.93;;;2.03;;
46330;SDS011;32049;52.346;4.870;2022-09-09T14:39:47;4.83;;;1.47;;
46330;SDS011;32049;52.346;4.870;2022-09-09T14:43:04;3.13;;;1.67;;
46330;SDS011;32049;52.346;4.870;2022-09-09T14:45:59;6.23;;;1.87;;
46330;SDS011;32049;52.346;4.870;2022-09-09T14:49:11;3.00;;;1.23;;
46330;SDS011;32049;52.346;4.870;2022-09-09T14:52:13;5.23;;;1.80;;
46330;SDS011;32049;52.346;4.870;2022-09-09T14:55:08;4.50;;;0.80;;
46330;SDS011;32049;52.346;4.870;2022-09-09T14:57:56;2.60;;;0.97;;
46330;SDS011;32049;52.346;4.870;2022-09-09T15:00:47;2.70;;;0.80;;
46330;SDS011;32049;52.346;4.870;2022-09-09T15:04:20;3.37;;;0.90;;
46330;SDS011;32049;52.346;4.870;2022-09-09T15:07:18;1.20;;;0.60;;
46330;SDS011;32049;52.346;4.870;2022-09-09T15:10:07;2.03;;;0.73;;
46330;SDS011;32049;52.346;4.870;2022-09-09T15:12:57;1.70;;;0.77;;
46330;SDS011;32049;52.346;4.870;2022-09-09T15:15:51;5.77;;;1.10;;
46330;SDS011;32049;52.346;4.870;2022-09-09T15:18:44;3.10;;;1.00;;
46330;SDS011;32049;52.346;4.870;2022-09-09T15:21:48;2.73;;;1.10;;
46330;SDS011;32049;52.346;4.870;2022-09-09T15:25:09;3.33;;;1.23;;
46330;SDS011;32049;52.346;4.870;2022-09-09T15:28:28;3.77;;;1.00;;
46330;SDS011;32049;52.346;4.870;2022-09-09T15:32:43;3.90;;;1.13;;
46330;SDS011;32049;52.346;4.870;2022-09-09T15:36:51;4.37;;;1.13;;
46330;SDS011;32049;52.346;4.870;2022-09-09T15:42:44;9.33;;;1.20;;
46330;SDS011;32049;52.346;4.870;2022-09-09T15:45:32;7.13;;;1.43;;
46330;SDS011;32049;52.346;4.870;2022-09-09T15:48:30;4.80;;;1.45;;
46330;SDS011;32049;52.346;4.870;2022-09-09T15:51:24;8.07;;;2.00;;
46330;SDS011;32049;52.346;4.870;2022-09-09T15:54:35;5.55;;;1.50;;
46330;SDS011;32049;52.346;4.870;2022-09-09T15:57:34;4.80;;;1.97;;
46330;SDS011;32049;52.346;4.870;2022-09-09T16:00:24;3.87;;;1.17;;
46330;SDS011;32049;52.346;4.870;2022-09-09T16:03:20;3.37;;;1.43;;
46330;SDS011;32049;52.346;4.870;2022-09-09T16:06:17;6.90;;;1.60;;
46330;SDS011;32049;52.346;4.870;2022-09-09T16:09:08;5.43;;;1.50;;
46330;SDS011;32049;52.346;4.870;2022-09-09T16:12:04;7.47;;;1.50;;
46330;SDS011;32049;52.346;4.870;2022-09-09T16:14:54;7.97;;;1.63;;
46330;SDS011;32049;52.346;4.870;2022-09-09T16:17:44;5.30;;;1.60;;
46330;SDS011;32049;52.346;4.870;2022-09-09T16:20:40;2.53;;;1.00;;
46330;SDS011;32049;52.346;4.870;2022-09-09T16:23:34;4.77;;;1.87;;
46330;SDS011;32049;52.346;4.870;2022-09-09T16:29:43;3.87;;;1.30;;
46330;SDS011;32049;52.346;4.870;2022-09-09T16:32:36;2.67;;;1.00;;
46330;SDS011;32049;52.346;4.870;2022-09-09T16:38:28;5.53;;;1.65;;
46330;SDS011;32049;52.346;4.870;2022-09-09T16:41:27;4.27;;;1.23;;
46330;SDS011;32049;52.346;4.870;2022-09-09T16:44:20;4.60;;;1.80;;
46330;SDS011;32049;52.346;4.870;2022-09-09T16:47:11;5.70;;;1.20;;
46330;SDS011;32049;52.346;4.870;2022-09-09T16:50:00;7.27;;;1.67;;
46330;SDS011;32049;52.346;4.870;2022-09-09T16:53:01;6.90;;;1.90;;
46330;SDS011;32049;52.346;4.870;2022-09-09T16:56:14;3.57;;;1.10;;
46330;SDS011;32049;52.346;4.870;2022-09-09T16:59:19;3.60;;;1.57;;
46330;SDS011;32049;52.346;4.870;2022-09-09T17:02:11;5.80;;;1.50;;
46330;SDS011;32049;52.346;4.870;2022-09-09T17:05:02;2.67;;;1.40;;
46330;SDS011;32049;52.346;4.870;2022-09-09T17:07:56;6.73;;;1.70;;
46330;SDS011;32049;52.346;4.870;2022-09-09T17:10:44;4.30;;;1.40;;
46330;SDS011;32049;52.346;4.870;2022-09-09T17:13:36;4.00;;;1.67;;
46330;SDS011;32049;52.346;4.870;2022-09-09T17:16:25;3.77;;;1.70;;
46330;SDS011;32049;52.346;4.870;2022-09-09T17:19:16;7.47;;;2.20;;
46330;SDS011;32049;52.346;4.870;2022-09-09T17:22:09;8.07;;;2.37;;
46330;SDS011;32049;52.346;4.870;2022-09-09T17:25:03;7.07;;;1.70;;
46330;SDS011;32049;52.346;4.870;2022-09-09T17:37:33;5.50;;;1.90;;
46330;SDS011;32049;52.346;4.870;2022-09-09T17:46:44;5.40;;;2.23;;
46330;SDS011;32049;52.346;4.870;2022-09-09T18:01:55;5.47;;;3.60;;
46330;SDS011;32049;52.346;4.870;2022-09-09T18:06:07;5.87;;;3.60;;
46330;SDS011;32049;52.346;4.870;2022-09-09T18:13:54;9.13;;;4.33;;
46330;SDS011;32049;52.346;4.870;2022-09-09T18:17:54;9.23;;;4.80;;
46330;SDS011;32049;52.346;4.870;2022-09-09T18:22:10;10.13;;;5.25;;
46330;SDS011;32049;52.346;4.870;2022-09-09T18:25:52;8.53;;;5.00;;
46330;SDS011;32049;52.346;4.870;2022-09-09T18:29:15;9.23;;;4.67;;
46330;SDS011;32049;52.346;4.870;2022-09-09T18:57:21;10.40;;;5.00;;
46330;SDS011;32049;52.346;4.870;2022-09-09T19:00:09;8.77;;;4.53;;
46330;SDS011;32049;52.346;4.870;2022-09-09T19:02:58;6.70;;;4.30;;
46330;SDS011;32049;52.346;4.870;2022-09-09T19:05:45;8.10;;;4.17;;
46330;SDS011;32049;52.346;4.870;2022-09-09T19:08:33;6.47;;;4.33;;
46330;SDS011;32049;52.346;4.870;2022-09-09T19:29:24;6.90;;;3.90;;
46330;SDS011;32049;52.346;4.870;2022-09-09T19:32:14;9.27;;;4.60;;
46330;SDS011;32049;52.346;4.870;2022-09-09T19:35:22;7.67;;;4.30;;
46330;SDS011;32049;52.346;4.870;2022-09-09T19:38:09;9.23;;;4.77;;
46330;SDS011;32049;52.346;4.870;2022-09-09T19:47:04;10.97;;;5.40;;
46330;SDS011;32049;52.346;4.870;2022-09-09T19:49:52;10.67;;;5.27;;
46330;SDS011;32049;52.346;4.870;2022-09-09T19:52:40;10.57;;;4.90;;
46330;SDS011;32049;52.346;4.870;2022-09-09T19:55:27;10.73;;;5.13;;
46330;SDS011;32049;52.346;4.870;2022-09-09T19:58:15;9.87;;;5.10;;
46330;SDS011;32049;52.346;4.870;2022-09-09T20:01:17;10.17;;;4.53;;
46330;SDS011;32049;52.346;4.870;2022-09-09T20:04:07;10.20;;;5.07;;
46330;SDS011;32049;52.346;4.870;2022-09-09T20:10:17;6.60;;;3.97;;
46330;SDS011;32049;52.346;4.870;2022-09-09T20:13:11;9.13;;;3.50;;
46330;SDS011;32049;52.346;4.870;2022-09-09T20:15:59;8.57;;;3.70;;
46330;SDS011;32049;52.346;4.870;2022-09-09T20:21:47;5.40;;;3.27;;
46330;SDS011;32049;52.346;4.870;2022-09-09T20:24:35;9.57;;;4.00;;
46330;SDS011;32049;52.346;4.870;2022-09-09T20:27:33;6.27;;;3.50;;
46330;SDS011;32049;52.346;4.870;2022-09-09T20:30:20;7.87;;;3.23;;
46330;SDS011;32049;52.346;4.870;2022-09-09T20:33:12;7.47;;;3.50;;
46330;SDS011;32049;52.346;4.870;2022-09-09T20:38:58;7.03;;;3.80;;
46330;SDS011;32049;52.346;4.870;2022-09-09T20:42:19;9.03;;;4.23;;
46330;SDS011;32049;52.346;4.870;2022-09-09T20:45:09;11.80;;;4.43;;
46330;SDS011;32049;52.346;4.870;2022-09-09T20:48:02;9.03;;;4.07;;
46330;SDS011;32049;52.346;4.870;2022-09-09T20:50:50;11.53;;;4.40;;
46330;SDS011;32049;52.346;4.870;2022-09-09T20:53:39;8.83;;;4.43;;
46330;SDS011;32049;52.346;4.870;2022-09-09T20:56:36;9.67;;;4.33;;
46330;SDS011;32049;52.346;4.870;2022-09-09T20:59:27;8.77;;;5.07;;
46330;SDS011;32049;52.346;4.870;2022-09-09T21:02:16;8.37;;;4.07;;
46330;SDS011;32049;52.346;4.870;2022-09-09T21:05:04;7.27;;;4.50;;
46330;SDS011;32049;52.346;4.870;2022-09-09T21:07:56;9.60;;;4.43;;
46330;SDS011;32049;52.346;4.870;2022-09-09T21:10:47;8.80;;;4.27;;
46330;SDS011;32049;52.346;4.870;2022-09-09T21:13:35;11.23;;;4.70;;
46330;SDS011;32049;52.346;4.870;2022-09-09T21:16:24;8.70;;;4.97;;
46330;SDS011;32049;52.346;4.870;2022-09-09T21:19:14;7.93;;;4.60;;
46330;SDS011;32049;52.346;4.870;2022-09-09T21:22:05;9.00;;;4.30;;
46330;SDS011;32049;52.346;4.870;2022-09-09T21:27:49;11.30;;;4.93;;
46330;SDS011;32049;52.346;4.870;2022-09-09T21:30:46;10.23;;;4.93;;
46330;SDS011;32049;52.346;4.870;2022-09-09T21:33:44;11.60;;;5.67;;
46330;SDS011;32049;52.346;4.870;2022-09-09T21:36:39;9.68;;;4.97;;
46330;SDS011;32049;52.346;4.870;2022-09-09T21:39:28;15.17;;;6.33;;
46330;SDS011;32049;52.346;4.870;2022-09-09T21:42:23;9.93;;;5.37;;
46330;SDS011;32049;52.346;4.870;2022-09-09T21:45:12;9.50;;;5.17;;
46330;SDS011;32049;52.346;4.870;2022-09-09T21:48:01;8.53;;;5.63;;
46330;SDS011;32049;52.346;4.870;2022-09-09T21:50:54;9.10;;;6.10;;
46330;SDS011;32049;52.346;4.870;2022-09-09T21:53:45;10.20;;;6.63;;
46330;SDS011;32049;52.346;4.870;2022-09-09T21:56:39;9.63;;;5.77;;
46330;SDS011;32049;52.346;4.870;2022-09-09T21:59:32;12.07;;;6.97;;
46330;SDS011;32049;52.346;4.870;2022-09-09T22:02:20;11.47;;;7.07;;
46330;SDS011;32049;52.346;4.870;2022-09-09T22:05:16;11.67;;;7.03;;
46330;SDS011;32049;52.346;4.870;2022-09-09T22:08:03;12.67;;;7.17;;
46330;SDS011;32049;52.346;4.870;2022-09-09T22:11:05;11.83;;;7.20;;
46330;SDS011;32049;52.346;4.870;2022-09-09T22:14:00;12.83;;;6.80;;
46330;SDS011;32049;52.346;4.870;2022-09-09T22:16:48;14.57;;;6.43;;
46330;SDS011;32049;52.346;4.870;2022-09-09T22:19:37;16.50;;;7.10;;
46330;SDS011;32049;52.346;4.870;2022-09-09T22:22:30;13.53;;;7.20;;
46330;SDS011;32049;52.346;4.870;2022-09-09T22:25:19;10.43;;;6.50;;
46330;SDS011;32049;52.346;4.870;2022-09-09T22:28:09;11.80;;;6.17;;
46330;SDS011;32049;52.346;4.870;2022-09-09T22:31:01;9.67;;;5.73;;
46330;SDS011;32049;52.346;4.870;2022-09-09T22:33:52;11.60;;;6.30;;
46330;SDS011;32049;52.346;4.870;2022-09-09T22:36:43;9.97;;;6.70;;
46330;SDS011;32049;52.346;4.870;2022-09-09T22:39:33;11.17;;;6.07;;
46330;SDS011;32049;52.346;4.870;2022-09-09T22:42:26;8.57;;;5.03;;
46330;SDS011;32049;52.346;4.870;2022-09-09T22:45:13;10.37;;;5.50;;
46330;SDS011;32049;52.346;4.870;2022-09-09T22:48:05;8.60;;;5.40;;
46330;SDS011;32049;52.346;4.870;2022-09-09T22:51:05;10.13;;;6.00;;
46330;SDS011;32049;52.346;4.870;2022-09-09T22:54:03;9.03;;;5.20;;
46330;SDS011;32049;52.346;4.870;2022-09-09T22:56:51;9.03;;;5.03;;
46330;SDS011;32049;52.346;4.870;2022-09-09T22:59:41;9.70;;;4.90;;
46330;SDS011;32049;52.346;4.870;2022-09-09T23:02:29;10.03;;;5.27;;
46330;SDS011;32049;52.346;4.870;2022-09-09T23:05:21;12.00;;;4.97;;
